Time;durP1;ratioP1;P1;durP2;ratioP2;P2;SDS_P1;SDS_P2;PMS_P1;PMS_P2;Temp;Humidity;BMP_temperature;BMP_pressure;BME280_temperature;BME280_humidity;BME280_pressure;Samples;Min_cycle;Max_cycle;Signal;HPM_P1;HPM_P2
2024/01/24 00:02:14;;;;;;;12.27;10.88;;;;;;;;;;5046506;28;20035;-76
2024/01/24 00:04:41;;;;;;;15.10;12.77;;;;;;;;;;5029296;28;20029;-76
2024/01/24 00:07:09;;;;;;;14.18;11.32;;;;;;;;;;5046868;28;20037;-76
2024/01/24 00:09:36;;;;;;;12.30;11.10;;;;;;;;;;5028252;28;20099;-76
2024/01/24 00:12:02;;;;;;;13.13;10.77;;;;;;;;;;5046548;28;20136;-76
2024/01/24 00:14:28;;;;;;;12.32;11.10;;;;;;;;;;5046547;28;20139;-76
2024/01/24 00:16:54;;;;;;;11.73;9.82;;;;;;;;;;5029400;28;20052;-76
2024/01/24 00:19:21;;;;;;;9.98;8.95;;;;;;;;;;5029973;28;20033;-75
2024/01/24 00:21:46;;;;;;;10.00;8.18;;;;;;;;;;5030323;28;20060;-76
2024/01/24 00:24:13;;;;;;;13.32;11.98;;;;;;;;;;5046068;28;20067;-76
2024/01/24 00:26:39;;;;;;;14.88;12.45;;;;;;;;;;5027856;28;20041;-76
2024/01/24 00:29:05;;;;;;;13.73;10.88;;;;;;;;;;5028412;28;20025;-77
2024/01/24 00:31:31;;;;;;;13.00;11.43;;;;;;;;;;5029384;28;20064;-76
2024/01/24 00:33:57;;;;;;;13.77;12.43;;;;;;;;;;5010191;28;20098;-77
2024/01/24 00:36:23;;;;;;;13.07;10.40;;;;;;;;;;5013116;28;20094;-76
2024/01/24 00:38:49;;;;;;;11.63;7.82;;;;;;;;;;5047149;28;20411;-75
2024/01/24 00:41:15;;;;;;;15.23;12.52;;;;;;;;;;5047109;28;20040;-75
2024/01/24 00:43:41;;;;;;;12.65;11.07;;;;;;;;;;5046886;28;20041;-76
2024/01/24 00:46:07;;;;;;;10.23;9.20;;;;;;;;;;5028958;28;20034;-76
2024/01/24 00:48:34;;;;;;;15.02;11.68;;;;;;;;;;5046184;28;20053;-75
2024/01/24 00:51:00;;;;;;;16.70;12.90;;;;;;;;;;5050040;28;20363;-76
2024/01/24 00:53:26;;;;;;;16.05;12.32;;;;;;;;;;5054821;28;20121;-76
2024/01/24 00:55:52;;;;;;;12.77;10.90;;;;;;;;;;5029429;28;20041;-75
2024/01/24 00:58:19;;;;;;;10.27;9.05;;;;;;;;;;5033082;28;20039;-76
2024/01/24 01:00:45;;;;;;;12.48;11.15;;;;;;;;;;5052356;28;20029;-75
2024/01/24 01:03:11;;;;;;;13.23;11.23;;;;;;;;;;5033087;28;20037;-76
2024/01/24 01:05:37;;;;;;;14.77;12.23;;;;;;;;;;5052524;28;20391;-76
2024/01/24 01:08:05;;;;;;;12.63;10.50;;;;;;;;;;5053145;28;20017;-75
2024/01/24 01:10:31;;;;;;;13.15;10.10;;;;;;;;;;5066991;28;20029;-75
2024/01/24 01:12:57;;;;;;;9.00;8.00;;;;;;;;;;5056861;28;20029;-75
2024/01/24 01:15:24;;;;;;;14.02;10.82;;;;;;;;;;5051615;28;20087;-75
2024/01/24 01:17:50;;;;;;;12.38;9.13;;;;;;;;;;5050356;28;20076;-75
2024/01/24 01:20:19;;;;;;;12.88;11.52;;;;;;;;;;5031764;28;20090;-75
2024/01/24 01:22:45;;;;;;;13.00;10.77;;;;;;;;;;5050524;28;20048;-75
2024/01/24 01:25:11;;;;;;;11.25;9.10;;;;;;;;;;5050103;28;20033;-76
2024/01/24 01:27:37;;;;;;;7.43;6.70;;;;;;;;;;5051126;28;20127;-76
2024/01/24 01:30:03;;;;;;;12.35;11.18;;;;;;;;;;5049851;28;20144;-75
2024/01/24 01:32:29;;;;;;;16.52;14.90;;;;;;;;;;5031590;28;20059;-77
2024/01/24 01:34:55;;;;;;;10.75;9.65;;;;;;;;;;5049574;28;20033;-76
2024/01/24 01:37:23;;;;;;;7.72;6.97;;;;;;;;;;5040517;28;20416;-76
2024/01/24 01:39:49;;;;;;;11.30;9.63;;;;;;;;;;5032842;28;20056;-75
2024/01/24 01:42:15;;;;;;;13.27;8.75;;;;;;;;;;5049738;28;20042;-76
2024/01/24 01:44:43;;;;;;;10.25;8.38;;;;;;;;;;5031993;28;20510;-76
2024/01/24 01:47:08;;;;;;;16.08;13.13;;;;;;;;;;5031419;28;20499;-76
2024/01/24 01:49:34;;;;;;;15.40;10.68;;;;;;;;;;5049536;28;20036;-77
2024/01/24 01:52:00;;;;;;;15.90;13.00;;;;;;;;;;5013344;28;20126;-76
2024/01/24 01:54:27;;;;;;;10.00;8.93;;;;;;;;;;5032514;28;20062;-77
2024/01/24 01:56:53;;;;;;;13.43;10.10;;;;;;;;;;5049216;28;20044;-76
2024/01/24 01:59:18;;;;;;;11.27;8.88;;;;;;;;;;5031171;28;20558;-76
2024/01/24 02:01:44;;;;;;;13.02;11.65;;;;;;;;;;5031525;28;20040;-75
2024/01/24 02:04:10;;;;;;;12.75;9.52;;;;;;;;;;5014369;28;20126;-76
2024/01/24 02:06:36;;;;;;;7.03;6.40;;;;;;;;;;5050410;28;20094;-76
2024/01/24 02:09:02;;;;;;;9.13;7.60;;;;;;;;;;5030363;28;20033;-77
2024/01/24 02:11:28;;;;;;;12.50;10.85;;;;;;;;;;5049766;28;20041;-75
2024/01/24 02:13:58;;;;;;;9.60;8.32;;;;;;;;;;5049910;28;20454;-75
2024/01/24 02:16:23;;;;;;;14.00;11.57;;;;;;;;;;5041095;28;20135;-75
2024/01/24 02:19:10;;;;;;;9.38;8.40;;;;;;;;;;5014731;28;20029;-75
2024/01/24 02:21:37;;;;;;;12.15;9.10;;;;;;;;;;5050857;28;20036;-75
2024/01/24 02:24:03;;;;;;;11.65;10.18;;;;;;;;;;5031096;28;20037;-76
2024/01/24 02:26:29;;;;;;;10.00;8.65;;;;;;;;;;5031143;28;20044;-75
2024/01/24 02:28:55;;;;;;;9.50;8.48;;;;;;;;;;5032549;28;20051;-75
2024/01/24 02:31:21;;;;;;;10.13;9.18;;;;;;;;;;5040170;28;20064;-75
2024/01/24 02:33:46;;;;;;;11.25;8.43;;;;;;;;;;5050041;28;20040;-77
2024/01/24 02:36:14;;;;;;;13.63;11.63;;;;;;;;;;5048874;28;20098;-76
2024/01/24 02:38:41;;;;;;;12.73;10.30;;;;;;;;;;5017178;28;20129;-77
2024/01/24 02:41:07;;;;;;;11.63;10.38;;;;;;;;;;5045190;28;20092;-75
2024/01/24 02:43:36;;;;;;;15.93;11.70;;;;;;;;;;5049248;28;20089;-77
2024/01/24 02:46:02;;;;;;;11.57;10.38;;;;;;;;;;5049080;28;20061;-76
2024/01/24 02:48:28;;;;;;;12.18;9.73;;;;;;;;;;5048816;28;20060;-76
2024/01/24 02:50:54;;;;;;;14.25;12.48;;;;;;;;;;5048359;28;20037;-76
2024/01/24 02:53:20;;;;;;;9.32;8.48;;;;;;;;;;5013859;28;20112;-76
2024/01/24 02:55:45;;;;;;;12.52;10.15;;;;;;;;;;5030270;28;20108;-74
2024/01/24 02:58:11;;;;;;;10.45;8.00;;;;;;;;;;5047950;28;20106;-74
2024/01/24 03:00:37;;;;;;;12.68;9.75;;;;;;;;;;5031590;28;20631;-75
2024/01/24 03:03:04;;;;;;;14.35;11.15;;;;;;;;;;5047846;28;20029;-75
2024/01/24 03:05:29;;;;;;;8.25;7.18;;;;;;;;;;5047945;28;20163;-76
2024/01/24 03:07:58;;;;;;;12.52;9.57;;;;;;;;;;5047989;28;20071;-75
2024/01/24 03:10:27;;;;;;;13.15;10.93;;;;;;;;;;5040218;28;20170;-76
2024/01/24 03:12:53;;;;;;;12.77;10.45;;;;;;;;;;5030288;28;20025;-74
2024/01/24 03:15:19;;;;;;;17.42;14.43;;;;;;;;;;5047550;28;20411;-75
2024/01/24 03:17:45;;;;;;;14.88;10.55;;;;;;;;;;5031766;28;20043;-74
2024/01/24 03:20:12;;;;;;;7.10;6.45;;;;;;;;;;5045817;28;20183;-75
2024/01/24 03:22:37;;;;;;;7.63;6.50;;;;;;;;;;5046956;28;20036;-77
2024/01/24 03:25:03;;;;;;;14.90;11.18;;;;;;;;;;5029923;28;20503;-74
2024/01/24 03:27:30;;;;;;;16.77;13.30;;;;;;;;;;5030419;28;20035;-75
2024/01/24 03:29:56;;;;;;;12.35;10.57;;;;;;;;;;5029995;28;20037;-79
2024/01/24 03:32:22;;;;;;;11.40;10.23;;;;;;;;;;5015309;28;20033;-79
2024/01/24 03:34:52;;;;;;;15.65;9.15;;;;;;;;;;5050225;28;20037;-80
2024/01/24 03:37:17;;;;;;;9.82;8.82;;;;;;;;;;5028842;28;20538;-80
2024/01/24 03:39:43;;;;;;;10.23;8.63;;;;;;;;;;5027623;28;20030;-78
2024/01/24 03:42:09;;;;;;;17.13;13.45;;;;;;;;;;5031564;28;20037;-80
2024/01/24 03:44:35;;;;;;;14.50;11.75;;;;;;;;;;5042166;28;20029;-78
2024/01/24 03:47:01;;;;;;;12.25;8.77;;;;;;;;;;5016960;28;20105;-79
2024/01/24 03:49:27;;;;;;;6.78;6.18;;;;;;;;;;5043199;28;20460;-79
2024/01/24 03:51:53;;;;;;;10.38;7.78;;;;;;;;;;5041633;28;20021;-79
2024/01/24 03:54:19;;;;;;;7.55;6.90;;;;;;;;;;5041673;28;20089;-78
2024/01/24 03:56:45;;;;;;;12.43;9.73;;;;;;;;;;5039240;28;20056;-78
2024/01/24 03:59:11;;;;;;;10.57;8.07;;;;;;;;;;5046026;28;20041;-78
2024/01/24 04:01:37;;;;;;;12.88;9.75;;;;;;;;;;5043622;28;20041;-80
2024/01/24 04:04:03;;;;;;;15.50;11.88;;;;;;;;;;5042872;28;20033;-78
2024/01/24 04:06:28;;;;;;;14.90;12.05;;;;;;;;;;5025347;28;20041;-78
2024/01/24 04:08:54;;;;;;;7.38;6.63;;;;;;;;;;5034462;28;20087;-78
2024/01/24 04:11:20;;;;;;;12.10;10.85;;;;;;;;;;5030284;28;20025;-78
2024/01/24 04:13:50;;;;;;;11.65;10.45;;;;;;;;;;5028364;28;20040;-77
2024/01/24 04:16:16;;;;;;;13.15;10.02;;;;;;;;;;5026777;28;20530;-78
2024/01/24 04:18:42;;;;;;;12.68;11.18;;;;;;;;;;5025198;28;20041;-79
2024/01/24 04:21:07;;;;;;;8.82;7.97;;;;;;;;;;5032830;28;20037;-78
2024/01/24 04:23:33;;;;;;;15.10;11.27;;;;;;;;;;5032174;28;20423;-79
2024/01/24 04:26:02;;;;;;;16.00;10.07;;;;;;;;;;5012102;28;20177;-78
2024/01/24 04:28:28;;;;;;;12.30;10.13;;;;;;;;;;5028324;28;20037;-78
2024/01/24 04:30:54;;;;;;;9.98;8.85;;;;;;;;;;5037979;28;20117;-78
2024/01/24 04:33:19;;;;;;;12.95;11.63;;;;;;;;;;5039953;28;20062;-78
2024/01/24 04:35:45;;;;;;;13.75;12.00;;;;;;;;;;5033186;28;20029;-78
2024/01/24 04:38:11;;;;;;;19.20;13.85;;;;;;;;;;4999007;28;20064;-78
2024/01/24 04:40:37;;;;;;;18.38;12.90;;;;;;;;;;5034095;28;20033;-79
2024/01/24 04:43:03;;;;;;;11.70;9.57;;;;;;;;;;5032227;28;20056;-77
2024/01/24 04:45:30;;;;;;;21.48;15.65;;;;;;;;;;5030454;28;20391;-79
2024/01/24 04:47:56;;;;;;;20.67;14.55;;;;;;;;;;5013971;28;20495;-78
2024/01/24 04:50:22;;;;;;;18.25;10.43;;;;;;;;;;5030207;28;20031;-78
2024/01/24 04:52:48;;;;;;;13.80;9.57;;;;;;;;;;5034551;28;20076;-79
2024/01/24 04:55:14;;;;;;;8.65;7.65;;;;;;;;;;5031457;28;20049;-79
2024/01/24 04:57:40;;;;;;;12.18;7.80;;;;;;;;;;5006578;28;20096;-80
2024/01/24 05:00:09;;;;;;;17.60;13.80;;;;;;;;;;5008257;28;20494;-79
2024/01/24 05:02:35;;;;;;;15.65;10.73;;;;;;;;;;5031419;28;20025;-78
2024/01/24 05:05:02;;;;;;;20.73;15.63;;;;;;;;;;4992063;28;20030;-79
2024/01/24 05:07:29;;;;;;;16.48;12.32;;;;;;;;;;5011179;28;20038;-78
2024/01/24 05:13:47;;;;;;;18.95;13.13;;;;;;;;;;5041071;28;20076;-79
2024/01/24 05:16:14;;;;;;;20.70;14.82;;;;;;;;;;5031605;28;20052;-78
2024/01/24 05:18:40;;;;;;;11.63;9.20;;;;;;;;;;5029703;28;20115;-78
2024/01/24 05:21:06;;;;;;;19.02;13.70;;;;;;;;;;5031181;28;20515;-79
2024/01/24 05:23:32;;;;;;;24.23;17.13;;;;;;;;;;5013824;28;20423;-78
2024/01/24 05:25:57;;;;;;;17.60;13.23;;;;;;;;;;5030709;28;20040;-79
2024/01/24 05:28:23;;;;;;;17.40;11.73;;;;;;;;;;5031926;28;20025;-77
2024/01/24 05:30:49;;;;;;;18.23;11.07;;;;;;;;;;5028807;28;20041;-79
2024/01/24 05:33:15;;;;;;;20.80;14.60;;;;;;;;;;5029773;28;20392;-78
2024/01/24 05:35:41;;;;;;;11.75;8.75;;;;;;;;;;5030129;28;20052;-78
2024/01/24 05:38:07;;;;;;;12.63;10.18;;;;;;;;;;5045635;28;20581;-77
2024/01/24 05:40:33;;;;;;;25.23;15.82;;;;;;;;;;5030823;28;20044;-78
2024/01/24 05:43:01;;;;;;;14.32;10.95;;;;;;;;;;5032536;28;20526;-78
2024/01/24 05:45:27;;;;;;;14.40;11.45;;;;;;;;;;5024832;28;20056;-78
2024/01/24 05:47:53;;;;;;;19.33;13.30;;;;;;;;;;5026865;28;20045;-73
2024/01/24 05:50:19;;;;;;;15.77;12.40;;;;;;;;;;5029780;28;20029;-74
2024/01/24 05:52:44;;;;;;;24.45;17.70;;;;;;;;;;5049070;28;20033;-74
2024/01/24 05:55:11;;;;;;;20.67;14.35;;;;;;;;;;5049156;28;20061;-73
2024/01/24 05:57:40;;;;;;;16.27;10.95;;;;;;;;;;5031193;28;20048;-73
2024/01/24 06:00:10;;;;;;;11.25;8.85;;;;;;;;;;5030710;28;20036;-74
2024/01/24 06:02:39;;;;;;;21.52;13.05;;;;;;;;;;5048832;28;20044;-73
2024/01/24 06:05:05;;;;;;;16.52;10.35;;;;;;;;;;5031060;28;20033;-73
2024/01/24 06:07:32;;;;;;;18.27;13.52;;;;;;;;;;5027111;28;20037;-73
2024/01/24 06:09:58;;;;;;;18.17;12.57;;;;;;;;;;5024406;28;20138;-74
2024/01/24 06:12:24;;;;;;;18.17;11.55;;;;;;;;;;5045291;28;20029;-74
2024/01/24 06:14:51;;;;;;;16.38;12.10;;;;;;;;;;5048287;28;20035;-74
2024/01/24 06:17:17;;;;;;;16.45;10.98;;;;;;;;;;5048320;28;20085;-74
2024/01/24 06:19:44;;;;;;;14.50;10.18;;;;;;;;;;5032573;28;20037;-75
2024/01/24 06:22:09;;;;;;;20.08;13.35;;;;;;;;;;5055782;28;20045;-77
2024/01/24 06:24:35;;;;;;;26.13;15.95;;;;;;;;;;5051517;28;20032;-75
2024/01/24 06:27:01;;;;;;;15.70;11.90;;;;;;;;;;5049162;28;20062;-75
2024/01/24 06:29:27;;;;;;;12.32;10.35;;;;;;;;;;5031830;28;20758;-74
2024/01/24 06:31:53;;;;;;;19.33;16.40;;;;;;;;;;5032055;28;20880;-75
2024/01/24 06:34:19;;;;;;;10.15;8.27;;;;;;;;;;5049144;28;20033;-75
2024/01/24 06:36:45;;;;;;;18.25;13.35;;;;;;;;;;5029973;28;20427;-73
2024/01/24 06:39:10;;;;;;;21.02;14.27;;;;;;;;;;5048110;28;20108;-74
2024/01/24 06:41:36;;;;;;;11.73;6.93;;;;;;;;;;5048077;28;20086;-74
2024/01/24 06:44:05;;;;;;;16.50;12.10;;;;;;;;;;5032112;28;20025;-73
2024/01/24 06:46:51;;;;;;;14.32;11.50;;;;;;;;;;5040924;28;20041;-74
2024/01/24 06:49:37;;;;;;;13.57;11.60;;;;;;;;;;5066439;28;20036;-74
2024/01/24 06:52:04;;;;;;;21.92;14.40;;;;;;;;;;5021512;28;20725;-74
2024/01/24 06:54:31;;;;;;;15.57;12.52;;;;;;;;;;5047288;28;20133;-74
2024/01/24 06:56:57;;;;;;;14.88;11.70;;;;;;;;;;5030517;28;20092;-74
2024/01/24 06:59:23;;;;;;;15.85;11.90;;;;;;;;;;5029962;28;20467;-73
2024/01/24 07:01:49;;;;;;;20.05;13.77;;;;;;;;;;5034038;28;20099;-74
2024/01/24 07:04:15;;;;;;;14.93;11.00;;;;;;;;;;5048570;28;20491;-73
2024/01/24 07:06:41;;;;;;;20.30;14.55;;;;;;;;;;5044081;28;20036;-73
2024/01/24 07:09:07;;;;;;;18.23;11.77;;;;;;;;;;5030672;28;20029;-73
2024/01/24 07:11:33;;;;;;;9.98;8.98;;;;;;;;;;5049275;28;20075;-73
2024/01/24 07:13:59;;;;;;;16.02;12.85;;;;;;;;;;5047491;28;20511;-72
2024/01/24 07:16:27;;;;;;;20.33;14.73;;;;;;;;;;5032978;28;20068;-73
2024/01/24 07:18:53;;;;;;;20.80;16.15;;;;;;;;;;5048563;28;20029;-73
2024/01/24 07:21:19;;;;;;;15.82;12.48;;;;;;;;;;5048433;28;20085;-73
2024/01/24 07:23:45;;;;;;;8.95;7.65;;;;;;;;;;5045660;28;20029;-73
2024/01/24 07:26:11;;;;;;;12.57;9.48;;;;;;;;;;5049217;28;20489;-74
2024/01/24 07:28:37;;;;;;;17.27;14.15;;;;;;;;;;5047382;28;20036;-74
2024/01/24 07:31:03;;;;;;;16.20;11.75;;;;;;;;;;5048407;28;20118;-74
2024/01/24 07:33:28;;;;;;;21.98;13.68;;;;;;;;;;5048826;28;20041;-74
2024/01/24 07:35:54;;;;;;;23.17;17.45;;;;;;;;;;5048423;28;20060;-77
2024/01/24 07:38:20;;;;;;;20.80;14.93;;;;;;;;;;5048934;28;20581;-77
2024/01/24 07:40:46;;;;;;;15.15;11.30;;;;;;;;;;5048941;28;20626;-75
2024/01/24 07:43:12;;;;;;;17.05;10.70;;;;;;;;;;5028685;28;20065;-75
2024/01/24 07:45:38;;;;;;;24.63;14.82;;;;;;;;;;5014783;28;20450;-76
2024/01/24 07:48:04;;;;;;;13.10;11.40;;;;;;;;;;5049329;28;20037;-75
2024/01/24 07:50:31;;;;;;;16.30;11.05;;;;;;;;;;5048613;28;20527;-76
2024/01/24 07:52:57;;;;;;;20.27;13.48;;;;;;;;;;5014865;28;20518;-78
2024/01/24 07:55:23;;;;;;;16.25;12.45;;;;;;;;;;5029562;28;20033;-77
2024/01/24 07:57:49;;;;;;;22.88;13.80;;;;;;;;;;5048532;28;20045;-77
2024/01/24 08:00:18;;;;;;;22.08;13.77;;;;;;;;;;5049111;28;20102;-77
2024/01/24 08:02:44;;;;;;;12.25;11.00;;;;;;;;;;5049677;28;20090;-76
2024/01/24 08:05:13;;;;;;;21.27;14.95;;;;;;;;;;5050133;28;20427;-77
2024/01/24 08:07:42;;;;;;;14.80;13.15;;;;;;;;;;5031058;28;20037;-76
2024/01/24 08:10:11;;;;;;;17.45;11.75;;;;;;;;;;5050777;28;20041;-77
2024/01/24 08:12:39;;;;;;;24.20;14.43;;;;;;;;;;5040527;28;20029;-77
2024/01/24 08:15:05;;;;;;;12.68;10.68;;;;;;;;;;5054055;28;20560;-76
2024/01/24 08:17:32;;;;;;;18.13;14.23;;;;;;;;;;5034539;28;20078;-78
2024/01/24 08:19:58;;;;;;;15.32;11.82;;;;;;;;;;5051522;28;20041;-80
2024/01/24 08:22:27;;;;;;;19.67;14.18;;;;;;;;;;5051710;28;20455;-77
2024/01/24 08:25:02;;;;;;;21.17;15.95;;;;;;;;;;5052948;28;20040;-78
2024/01/24 08:27:52;;;;;;;18.92;13.32;;;;;;;;;;5008014;28;20507;-79
2024/01/24 08:30:18;;;;;;;24.50;18.08;;;;;;;;;;5051285;28;20040;-78
2024/01/24 08:32:44;;;;;;;22.58;16.05;;;;;;;;;;5050579;28;20029;-77
2024/01/24 08:35:12;;;;;;;20.38;16.02;;;;;;;;;;5049953;28;20044;-78
2024/01/24 08:37:38;;;;;;;11.57;9.75;;;;;;;;;;5049157;28;20126;-78
2024/01/24 08:40:05;;;;;;;20.70;15.73;;;;;;;;;;5031750;28;20087;-77
2024/01/24 08:42:31;;;;;;;14.10;12.63;;;;;;;;;;5031657;28;20124;-78
2024/01/24 08:44:57;;;;;;;18.77;15.23;;;;;;;;;;5014458;28;20174;-78
2024/01/24 08:47:23;;;;;;;17.95;11.88;;;;;;;;;;5014468;28;20120;-74
2024/01/24 08:49:50;;;;;;;13.48;12.05;;;;;;;;;;5029988;28;20430;-75
2024/01/24 08:52:16;;;;;;;17.88;12.05;;;;;;;;;;5030581;28;20037;-74
2024/01/24 08:54:45;;;;;;;11.40;7.78;;;;;;;;;;5030474;28;20036;-75
2024/01/24 08:57:11;;;;;;;11.02;8.40;;;;;;;;;;5048174;28;20103;-76
2024/01/24 08:59:40;;;;;;;12.75;11.45;;;;;;;;;;5030267;28;20029;-78
2024/01/24 09:02:07;;;;;;;22.95;16.10;;;;;;;;;;5048294;28;20032;-76
2024/01/24 09:04:33;;;;;;;14.15;12.25;;;;;;;;;;5048029;28;20105;-76
2024/01/24 09:06:59;;;;;;;9.00;8.10;;;;;;;;;;5048019;28;20120;-76
2024/01/24 09:09:25;;;;;;;13.48;11.05;;;;;;;;;;5030047;28;20071;-77
2024/01/24 09:11:51;;;;;;;11.95;10.80;;;;;;;;;;5048134;28;20123;-76
2024/01/24 09:14:17;;;;;;;16.70;13.40;;;;;;;;;;5030258;28;20615;-77
2024/01/24 09:16:43;;;;;;;17.52;14.38;;;;;;;;;;5030318;28;20052;-77
2024/01/24 09:19:12;;;;;;;20.77;16.08;;;;;;;;;;5018306;28;20029;-77
2024/01/24 09:21:41;;;;;;;14.02;11.63;;;;;;;;;;5017948;28;20037;-76
2024/01/24 09:24:07;;;;;;;17.45;13.73;;;;;;;;;;5035080;28;20056;-77
2024/01/24 09:26:33;;;;;;;15.93;13.50;;;;;;;;;;5053351;28;20562;-77
2024/01/24 09:28:59;;;;;;;13.68;12.10;;;;;;;;;;5052135;28;20410;-77
2024/01/24 09:31:25;;;;;;;11.73;9.00;;;;;;;;;;5052508;28;20048;-76
2024/01/24 09:33:51;;;;;;;15.70;11.68;;;;;;;;;;5018970;28;20033;-77
2024/01/24 09:36:16;;;;;;;9.75;8.75;;;;;;;;;;5053288;28;20040;-77
2024/01/24 09:38:44;;;;;;;12.90;8.25;;;;;;;;;;5039320;28;20032;-77
2024/01/24 09:41:13;;;;;;;13.35;9.60;;;;;;;;;;5069841;28;20037;-78
2024/01/24 09:43:42;;;;;;;12.73;11.45;;;;;;;;;;5042401;28;20518;-76
2024/01/24 09:46:08;;;;;;;13.90;10.95;;;;;;;;;;5018980;28;20041;-77
2024/01/24 09:48:34;;;;;;;11.30;9.32;;;;;;;;;;5053944;28;20040;-76
2024/01/24 09:51:00;;;;;;;9.73;8.75;;;;;;;;;;5051580;28;20601;-76
2024/01/24 09:53:26;;;;;;;16.52;11.73;;;;;;;;;;5033793;28;20040;-76
2024/01/24 09:55:52;;;;;;;9.18;8.27;;;;;;;;;;5033655;28;20415;-76
2024/01/24 09:58:18;;;;;;;11.75;9.40;;;;;;;;;;5052378;28;20044;-77
2024/01/24 10:00:44;;;;;;;9.60;8.52;;;;;;;;;;5052852;28;20163;-77
2024/01/24 10:03:10;;;;;;;8.05;7.35;;;;;;;;;;5056740;28;20047;-77
2024/01/24 10:05:36;;;;;;;9.43;8.52;;;;;;;;;;5053455;28;20078;-78
2024/01/24 10:08:03;;;;;;;10.02;9.02;;;;;;;;;;5051640;28;20041;-78
2024/01/24 10:10:29;;;;;;;8.35;6.65;;;;;;;;;;5050872;28;20112;-77
2024/01/24 10:12:55;;;;;;;6.60;5.90;;;;;;;;;;5032829;28;20550;-77
2024/01/24 10:15:23;;;;;;;8.88;8.00;;;;;;;;;;5051006;28;20554;-77
2024/01/24 10:17:49;;;;;;;9.15;7.53;;;;;;;;;;5050998;28;20045;-77
2024/01/24 10:20:15;;;;;;;7.07;6.47;;;;;;;;;;5050530;28;20040;-76
2024/01/24 10:22:45;;;;;;;10.98;9.90;;;;;;;;;;5033183;28;20043;-75
2024/01/24 10:25:11;;;;;;;8.85;8.05;;;;;;;;;;5051169;28;20116;-75
2024/01/24 10:27:41;;;;;;;6.85;6.30;;;;;;;;;;5050040;28;20182;-74
2024/01/24 10:30:11;;;;;;;8.60;7.80;;;;;;;;;;5050603;28;20033;-75
2024/01/24 10:32:37;;;;;;;7.85;6.72;;;;;;;;;;5050760;28;20033;-75
2024/01/24 10:35:06;;;;;;;10.10;8.32;;;;;;;;;;5057792;28;20043;-75
2024/01/24 10:37:32;;;;;;;8.93;8.02;;;;;;;;;;5063542;28;20063;-75
2024/01/24 10:40:04;;;;;;;8.38;7.65;;;;;;;;;;5062847;28;20037;-75
2024/01/24 10:42:31;;;;;;;10.23;8.18;;;;;;;;;;5058827;28;20028;-75
2024/01/24 10:44:56;;;;;;;9.88;8.63;;;;;;;;;;5052849;28;20094;-75
2024/01/24 10:47:22;;;;;;;12.50;10.38;;;;;;;;;;5050989;28;20057;-74
2024/01/24 10:49:49;;;;;;;10.27;9.35;;;;;;;;;;5049599;28;20080;-74
2024/01/24 10:52:15;;;;;;;10.40;8.13;;;;;;;;;;5050058;28;20032;-75
2024/01/24 10:54:41;;;;;;;9.60;8.70;;;;;;;;;;5031994;28;20044;-75
2024/01/24 10:57:07;;;;;;;13.63;8.85;;;;;;;;;;5049575;28;20037;-75
2024/01/24 10:59:33;;;;;;;9.13;8.13;;;;;;;;;;5049977;28;20064;-75
2024/01/24 11:01:59;;;;;;;11.15;9.40;;;;;;;;;;5031962;28;20036;-75
2024/01/24 11:04:25;;;;;;;11.70;10.23;;;;;;;;;;5049617;28;20115;-76
2024/01/24 11:06:53;;;;;;;10.93;9.02;;;;;;;;;;5049679;28;20059;-75
2024/01/24 11:09:23;;;;;;;10.98;9.88;;;;;;;;;;5015420;28;20174;-76
2024/01/24 11:11:58;;;;;;;9.35;8.45;;;;;;;;;;5049247;28;20044;-76
2024/01/24 11:14:31;;;;;;;9.20;8.32;;;;;;;;;;5031460;28;20048;-76
2024/01/24 11:16:57;;;;;;;12.25;8.65;;;;;;;;;;5015018;28;20144;-76
2024/01/24 11:19:24;;;;;;;7.93;7.20;;;;;;;;;;5049415;28;20036;-76
2024/01/24 11:21:50;;;;;;;11.93;8.65;;;;;;;;;;4998459;28;20041;-77
2024/01/24 11:24:49;;;;;;;10.43;8.85;;;;;;;;;;5049225;28;20045;-77
2024/01/24 11:27:25;;;;;;;10.10;7.90;;;;;;;;;;4988776;28;20071;-76
2024/01/24 11:29:54;;;;;;;10.30;7.32;;;;;;;;;;5030979;28;20117;-75
2024/01/24 11:32:39;;;;;;;7.93;7.03;;;;;;;;;;5015100;28;20091;-76
2024/01/24 11:35:23;;;;;;;11.10;9.73;;;;;;;;;;4998814;28;20036;-76
2024/01/24 11:37:49;;;;;;;7.22;6.53;;;;;;;;;;5031088;28;20052;-77
2024/01/24 11:40:15;;;;;;;7.68;6.93;;;;;;;;;;5049041;28;20059;-76
2024/01/24 11:42:43;;;;;;;11.57;9.95;;;;;;;;;;5049514;28;20123;-77
2024/01/24 11:45:13;;;;;;;9.02;7.95;;;;;;;;;;5031105;28;20040;-79
2024/01/24 11:47:39;;;;;;;14.50;10.70;;;;;;;;;;5015530;28;20060;-76
2024/01/24 11:50:05;;;;;;;13.27;9.60;;;;;;;;;;5049619;28;20067;-76
2024/01/24 11:52:31;;;;;;;12.75;10.65;;;;;;;;;;5052183;28;20096;-77
2024/01/24 11:54:57;;;;;;;9.85;8.30;;;;;;;;;;5044037;28;20029;-77
2024/01/24 11:57:23;;;;;;;11.02;9.98;;;;;;;;;;5014504;28;20052;-78
2024/01/24 11:59:49;;;;;;;13.20;9.10;;;;;;;;;;5013738;28;20116;-78
2024/01/24 12:02:18;;;;;;;10.48;9.48;;;;;;;;;;5014156;28;20049;-77
2024/01/24 12:04:43;;;;;;;12.98;9.63;;;;;;;;;;5031588;28;20037;-77
2024/01/24 12:07:09;;;;;;;8.95;8.00;;;;;;;;;;5040113;28;20059;-76
2024/01/24 12:09:35;;;;;;;13.65;10.27;;;;;;;;;;5040831;28;20668;-76
2024/01/24 12:12:01;;;;;;;11.10;10.02;;;;;;;;;;5024469;28;20072;-76
2024/01/24 12:14:27;;;;;;;11.57;8.85;;;;;;;;;;5024437;28;20491;-77
2024/01/24 12:16:53;;;;;;;13.93;12.13;;;;;;;;;;5002239;28;20053;-77
2024/01/24 12:19:19;;;;;;;9.73;7.13;;;;;;;;;;5030759;28;20510;-78
2024/01/24 12:21:45;;;;;;;13.23;11.73;;;;;;;;;;4996897;28;20030;-76
2024/01/24 12:24:11;;;;;;;9.98;8.45;;;;;;;;;;5030941;28;20038;-77
2024/01/24 12:26:37;;;;;;;11.02;8.98;;;;;;;;;;5030947;28;20598;-77
2024/01/24 12:29:05;;;;;;;10.32;8.75;;;;;;;;;;5017113;28;20040;-78
2024/01/24 12:31:31;;;;;;;8.70;7.65;;;;;;;;;;5047940;28;20045;-78
2024/01/24 12:33:57;;;;;;;11.68;9.57;;;;;;;;;;5020018;28;20527;-77
2024/01/24 12:36:23;;;;;;;17.50;12.90;;;;;;;;;;5032362;28;20091;-78
2024/01/24 12:38:54;;;;;;;11.18;8.77;;;;;;;;;;4997112;28;20038;-78
2024/01/24 12:41:20;;;;;;;11.65;9.48;;;;;;;;;;5028891;28;20055;-78
2024/01/24 12:43:46;;;;;;;10.57;8.77;;;;;;;;;;5028614;28;20092;-77
2024/01/24 12:46:12;;;;;;;11.55;10.35;;;;;;;;;;5028433;28;20037;-78
2024/01/24 12:48:38;;;;;;;12.57;11.27;;;;;;;;;;5010800;28;20087;-77
2024/01/24 12:51:04;;;;;;;15.13;11.45;;;;;;;;;;5028260;28;20442;-77
2024/01/24 12:53:30;;;;;;;8.63;6.82;;;;;;;;;;5012865;28;20037;-78
2024/01/24 12:55:56;;;;;;;12.63;10.82;;;;;;;;;;5036830;28;20024;-77
2024/01/24 12:58:21;;;;;;;14.30;10.27;;;;;;;;;;5018370;28;20531;-79
2024/01/24 13:00:47;;;;;;;13.75;11.68;;;;;;;;;;5052241;28;20036;-78
2024/01/24 13:03:13;;;;;;;19.45;15.98;;;;;;;;;;5052291;28;20045;-78
2024/01/24 13:05:39;;;;;;;21.35;12.95;;;;;;;;;;5052298;28;20055;-77
2024/01/24 13:08:05;;;;;;;20.42;13.43;;;;;;;;;;5001372;28;20041;-77
2024/01/24 13:10:34;;;;;;;21.02;13.43;;;;;;;;;;5034240;28;20056;-78
2024/01/24 13:13:04;;;;;;;20.08;13.85;;;;;;;;;;5052043;28;20041;-79
2024/01/24 13:15:32;;;;;;;15.48;12.70;;;;;;;;;;5034116;28;20033;-78
2024/01/24 13:17:58;;;;;;;11.55;9.02;;;;;;;;;;5017939;28;20103;-78
2024/01/24 13:20:24;;;;;;;17.63;13.43;;;;;;;;;;5051936;28;20028;-78
2024/01/24 13:22:50;;;;;;;17.45;13.05;;;;;;;;;;5052565;28;20128;-79
2024/01/24 13:25:16;;;;;;;18.83;12.48;;;;;;;;;;5051823;28;20060;-79
2024/01/24 13:27:46;;;;;;;17.85;13.13;;;;;;;;;;5034250;28;20119;-80
2024/01/24 13:30:16;;;;;;;13.38;11.65;;;;;;;;;;5018650;28;20025;-79
2024/01/24 13:32:42;;;;;;;12.90;10.95;;;;;;;;;;5034338;28;20052;-79
2024/01/24 13:35:08;;;;;;;16.58;11.73;;;;;;;;;;5033799;28;20033;-78
2024/01/24 13:37:34;;;;;;;22.63;14.20;;;;;;;;;;5033974;28;20056;-79
2024/01/24 13:40:00;;;;;;;20.67;13.73;;;;;;;;;;5034038;28;20411;-78
2024/01/24 13:42:27;;;;;;;21.05;14.45;;;;;;;;;;5055399;28;20037;-77
2024/01/24 13:44:53;;;;;;;16.25;12.30;;;;;;;;;;5068089;28;20029;-78
2024/01/24 13:47:19;;;;;;;26.25;18.02;;;;;;;;;;5054270;28;20448;-79
2024/01/24 13:49:46;;;;;;;9.13;6.63;;;;;;;;;;5052393;28;20135;-78
2024/01/24 13:52:12;;;;;;;18.52;15.13;;;;;;;;;;5033647;28;20044;-79
2024/01/24 13:54:38;;;;;;;19.20;13.43;;;;;;;;;;5033819;28;20033;-79
2024/01/24 13:57:04;;;;;;;17.05;12.02;;;;;;;;;;5033328;28;20040;-77
2024/01/24 13:59:30;;;;;;;21.10;14.75;;;;;;;;;;5033750;28;20035;-78
2024/01/24 14:01:56;;;;;;;11.43;9.68;;;;;;;;;;5033393;28;20499;-79
2024/01/24 14:04:22;;;;;;;20.10;11.07;;;;;;;;;;5017298;28;20033;-79
2024/01/24 14:06:47;;;;;;;20.80;14.65;;;;;;;;;;5033614;28;20218;-78
2024/01/24 14:09:13;;;;;;;11.20;9.27;;;;;;;;;;5051010;28;20036;-78
2024/01/24 14:11:39;;;;;;;17.98;12.65;;;;;;;;;;5017302;28;20068;-79
2024/01/24 14:14:05;;;;;;;28.67;14.90;;;;;;;;;;5032992;28;20138;-78
2024/01/24 14:16:31;;;;;;;25.67;17.48;;;;;;;;;;5016467;28;20217;-80
2024/01/24 14:19:00;;;;;;;17.95;12.07;;;;;;;;;;5033636;28;20127;-79
2024/01/24 14:21:32;;;;;;;23.75;14.45;;;;;;;;;;5033489;28;20079;-79
2024/01/24 14:23:58;;;;;;;18.92;13.13;;;;;;;;;;5017343;28;20040;-79
2024/01/24 14:26:30;;;;;;;22.75;15.40;;;;;;;;;;5034302;28;20660;-79